Time;durP1;ratioP1;P1;durP2;ratioP2;P2;SDS_P1;SDS_P2;PMS_P1;PMS_P2;Temp;Humidity;BMP_temperature;BMP_pressure;BME280_temperature;BME280_humidity;BME280_pressure;Samples;Min_cycle;Max_cycle;Signal;HPM_P1;HPM_P2
2021/03/16 00:01:31;;;;;;;79.43;38.37;;;;;;;-1.67;70.00;98095.73;2154756;82;21107;-80
2021/03/16 00:04:32;;;;;;;403.57;59.03;;;;;;;-1.63;69.72;98098.91;2154267;82;21119;-80
2021/03/16 00:07:33;;;;;;;83.60;38.07;;;;;;;-1.63;69.65;98098.91;2153806;82;21127;-80
2021/03/16 00:10:34;;;;;;;93.20;39.30;;;;;;;-1.63;69.74;98101.06;2154463;82;21147;-82
2021/03/16 00:13:36;;;;;;;81.17;38.27;;;;;;;-1.58;69.70;98111.92;2154872;82;21159;-81
2021/03/16 00:16:38;;;;;;;89.57;39.43;;;;;;;-1.54;69.87;98105.73;2156125;82;21412;-80
2021/03/16 00:19:39;;;;;;;83.87;41.77;;;;;;;-1.51;69.63;98105.00;2156087;82;21142;-81
2021/03/16 00:22:40;;;;;;;87.33;41.20;;;;;;;-1.52;69.49;98109.25;2156095;82;21151;-80
2021/03/16 00:25:42;;;;;;;86.97;39.50;;;;;;;-1.52;69.54;98106.69;2155640;82;21316;-80
2021/03/16 00:28:43;;;;;;;84.17;37.83;;;;;;;-1.47;69.81;98108.19;2155063;83;21245;-80
2021/03/16 00:31:44;;;;;;;79.13;38.07;;;;;;;-1.45;69.69;98110.01;2154572;82;21147;-80
2021/03/16 00:38:03;;;;;;;77.17;37.97;;;;;;;-1.46;69.56;98110.81;2210935;79;23679;-81
2021/03/16 00:41:04;;;;;;;84.13;39.17;;;;;;;-1.57;69.65;98109.44;2178429;82;21287;-82
2021/03/16 00:44:05;;;;;;;82.10;39.23;;;;;;;-1.62;69.75;98109.63;2179406;82;21138;-81
2021/03/16 00:47:06;;;;;;;84.90;39.43;;;;;;;-1.62;69.53;98112.18;2179537;82;21157;-81
2021/03/16 00:50:08;;;;;;;91.07;40.47;;;;;;;-1.65;69.68;98112.03;2179673;82;21284;-82
2021/03/16 00:53:09;;;;;;;85.30;38.17;;;;;;;-1.65;69.85;98116.75;2179563;81;21150;-81
2021/03/16 00:56:10;;;;;;;83.83;38.50;;;;;;;-1.65;69.61;98113.31;2179604;82;21181;-82
2021/03/16 00:59:11;;;;;;;80.17;40.23;;;;;;;-1.71;69.58;98110.47;2178972;82;21166;-81
2021/03/16 01:02:12;;;;;;;89.37;41.30;;;;;;;-1.79;69.56;98108.79;2179563;82;21183;-81
2021/03/16 01:05:13;;;;;;;90.93;40.07;;;;;;;-1.84;69.49;98110.65;2181637;82;21264;-81
2021/03/16 01:08:14;;;;;;;82.37;39.70;;;;;;;-1.85;69.87;98107.21;2179806;82;21138;-83
2021/03/16 01:11:15;;;;;;;92.60;40.70;;;;;;;-1.84;69.77;98110.25;2179315;82;21424;-81
2021/03/16 01:14:16;;;;;;;86.77;40.90;;;;;;;-1.92;69.60;98104.77;2179423;81;21110;-82
2021/03/16 01:17:18;;;;;;;89.97;40.33;;;;;;;-1.95;69.64;98105.02;2179814;82;21176;-83
2021/03/16 01:20:19;;;;;;;89.57;39.97;;;;;;;-1.97;69.54;98106.22;2179710;82;21535;-81
2021/03/16 01:23:20;;;;;;;81.47;39.30;;;;;;;-2.03;69.54;98099.53;2179420;82;21138;-82
2021/03/16 01:26:27;;;;;;;85.73;40.20;;;;;;;-2.08;69.60;98101.39;2179375;82;21150;-82
2021/03/16 01:29:28;;;;;;;87.93;41.63;;;;;;;-2.14;69.33;98099.41;2179823;82;21435;-82
2021/03/16 01:32:29;;;;;;;136.23;43.93;;;;;;;-2.18;69.40;98100.06;2179237;82;21518;-82
2021/03/16 01:35:30;;;;;;;83.73;38.90;;;;;;;-2.21;69.55;98099.91;2179022;82;21134;-83
2021/03/16 01:38:31;;;;;;;94.30;40.23;;;;;;;-2.25;69.40;98105.27;2180443;81;21113;-82
2021/03/16 01:41:32;;;;;;;86.90;40.50;;;;;;;-2.30;69.38;98105.84;2180017;81;21260;-82
2021/03/16 01:44:34;;;;;;;81.73;38.23;;;;;;;-2.37;69.52;98107.62;2179069;81;21559;-80
2021/03/16 01:47:35;;;;;;;86.13;39.23;;;;;;;-2.35;69.85;98103.06;2178799;81;21154;-81
2021/03/16 01:50:36;;;;;;;76.93;36.23;;;;;;;-2.34;69.93;98106.49;2178220;81;21125;-82
2021/03/16 01:53:37;;;;;;;71.13;35.43;;;;;;;-2.32;70.23;98104.89;2178440;81;21134;-82
2021/03/16 01:56:38;;;;;;;77.80;35.17;;;;;;;-2.29;70.29;98102.48;2178037;81;21582;-81
2021/03/16 01:59:39;;;;;;;75.33;35.53;;;;;;;-2.27;70.27;98099.60;2178327;81;21150;-81
2021/03/16 02:02:40;;;;;;;71.30;34.60;;;;;;;-2.22;70.24;98104.55;2179716;81;21117;-82
2021/03/16 02:05:44;;;;;;;75.27;34.50;;;;;;;-2.22;69.96;98103.27;2179088;82;21193;-81
2021/03/16 02:08:45;;;;;;;79.27;34.23;;;;;;;-2.24;69.96;98108.70;2179880;81;21118;-81
2021/03/16 02:11:46;;;;;;;92.33;37.20;;;;;;;-2.26;69.65;98111.19;2179969;81;21554;-82
2021/03/16 02:14:47;;;;;;;83.90;36.03;;;;;;;-2.28;69.85;98117.02;2178443;81;21535;-81
2021/03/16 02:17:48;;;;;;;77.53;35.73;;;;;;;-2.26;69.77;98116.30;2178432;81;21170;-82
2021/03/16 02:20:49;;;;;;;81.33;37.63;;;;;;;-2.26;70.27;98117.98;2179077;81;21558;-81
2021/03/16 02:23:50;;;;;;;93.27;43.43;;;;;;;-2.27;70.28;98122.61;2179193;81;21435;-81
2021/03/16 02:26:51;;;;;;;95.37;44.97;;;;;;;-2.44;70.61;98127.28;2179092;81;21157;-81
2021/03/16 02:29:52;;;;;;;90.53;40.13;;;;;;;-2.51;70.58;98129.05;2179905;81;21129;-81
2021/03/16 02:32:54;;;;;;;248.47;49.77;;;;;;;-2.53;70.54;98130.64;2179306;81;21149;-82
2021/03/16 02:35:55;;;;;;;88.07;37.97;;;;;;;-2.54;70.23;98124.66;2178746;81;21157;-80
2021/03/16 02:38:56;;;;;;;110.10;40.80;;;;;;;-2.60;70.09;98125.63;2179531;81;21142;-81
2021/03/16 02:41:57;;;;;;;83.43;36.57;;;;;;;-2.63;70.20;98125.03;2179661;81;21137;-83
2021/03/16 02:44:58;;;;;;;83.93;38.77;;;;;;;-2.64;70.00;98121.13;2179598;81;21133;-81
2021/03/16 02:47:59;;;;;;;87.37;39.33;;;;;;;-2.68;70.00;98123.04;2179733;81;21118;-82
2021/03/16 02:51:00;;;;;;;93.00;40.40;;;;;;;-2.65;70.23;98127.91;2179507;81;21118;-81
2021/03/16 02:54:01;;;;;;;79.50;35.87;;;;;;;-2.57;70.45;98127.94;2179378;81;21098;-81
2021/03/16 02:57:03;;;;;;;90.43;38.17;;;;;;;-2.61;69.95;98126.39;2179723;82;21180;-82
2021/03/16 03:00:04;;;;;;;86.03;37.43;;;;;;;-2.67;69.93;98124.80;2179315;81;21122;-82
2021/03/16 03:03:05;;;;;;;84.60;38.50;;;;;;;-2.70;69.84;98123.36;2179073;82;21157;-83
2021/03/16 03:06:06;;;;;;;82.20;39.70;;;;;;;-2.71;70.20;98133.98;2179005;81;21154;-82
2021/03/16 03:09:07;;;;;;;79.77;37.07;;;;;;;-2.66;70.47;98126.55;2179130;81;21103;-83
2021/03/16 03:12:08;;;;;;;262.73;47.07;;;;;;;-2.64;70.43;98133.49;2179499;81;21141;-82
2021/03/16 03:15:09;;;;;;;90.30;37.93;;;;;;;-2.73;70.05;98134.30;2178818;82;21150;-82
2021/03/16 03:18:10;;;;;;;77.17;35.13;;;;;;;-2.77;69.95;98128.95;2178750;81;21095;-82
2021/03/16 03:21:11;;;;;;;87.97;37.27;;;;;;;-2.83;69.70;98135.89;2178598;81;21142;-80
2021/03/16 03:24:12;;;;;;;78.30;36.47;;;;;;;-2.86;69.92;98143.80;2179080;81;21268;-82
2021/03/16 03:27:13;;;;;;;81.33;35.90;;;;;;;-2.86;70.11;98139.97;2179035;81;21103;-81
2021/03/16 03:30:14;;;;;;;80.77;35.87;;;;;;;-2.87;70.00;98142.04;2179975;81;21114;-82
2021/03/16 03:33:15;;;;;;;89.07;36.33;;;;;;;-2.89;69.96;98139.41;2179678;81;21102;-82
2021/03/16 03:36:16;;;;;;;83.23;37.00;;;;;;;-2.94;69.47;98141.72;2176951;81;21142;-82
2021/03/16 03:39:17;;;;;;;79.50;37.30;;;;;;;-3.03;69.56;98145.46;2162471;82;21253;-82
2021/03/16 03:42:18;;;;;;;83.17;36.73;;;;;;;-3.05;69.74;98148.33;2162252;82;21131;-82
2021/03/16 03:45:20;;;;;;;80.27;35.00;;;;;;;-3.05;69.91;98150.48;2162592;82;21135;-80
2021/03/16 03:48:21;;;;;;;99.73;39.23;;;;;;;-3.03;69.87;98155.67;2162326;82;21139;-83
2021/03/16 03:51:22;;;;;;;176.00;42.13;;;;;;;-3.01;69.77;98159.19;2162594;82;21103;-83
2021/03/16 03:54:23;;;;;;;114.43;39.10;;;;;;;-3.00;69.84;98160.94;2162696;82;21103;-82
2021/03/16 03:57:24;;;;;;;156.97;40.40;;;;;;;-2.99;69.77;98165.25;2162246;82;21285;-82
2021/03/16 04:00:25;;;;;;;78.50;33.63;;;;;;;-3.02;69.56;98167.64;2162029;82;21093;-82
2021/03/16 04:03:26;;;;;;;80.67;36.47;;;;;;;-3.10;69.49;98163.80;2161941;82;21146;-81
2021/03/16 04:06:27;;;;;;;81.57;34.10;;;;;;;-3.13;69.67;98162.36;2161290;82;21575;-82
2021/03/16 04:09:28;;;;;;;124.93;59.17;;;;;;;-3.11;69.56;98163.32;2162166;82;21250;-83
2021/03/16 04:12:29;;;;;;;73.27;34.07;;;;;;;-3.13;69.13;98162.36;2161509;82;21158;-82
2021/03/16 04:15:31;;;;;;;71.73;31.83;;;;;;;-3.15;69.03;98161.39;2161498;82;21583;-82
2021/03/16 04:18:32;;;;;;;74.80;34.63;;;;;;;-3.17;69.33;98168.09;2161194;82;21508;-81
2021/03/16 04:21:34;;;;;;;116.97;61.13;;;;;;;-3.15;69.88;98171.21;2160389;82;21289;-82
2021/03/16 04:24:34;;;;;;;71.47;34.13;;;;;;;-3.10;69.47;98172.73;2160577;82;21095;-82
2021/03/16 04:27:36;;;;;;;79.30;33.50;;;;;;;-3.15;69.57;98175.44;2160811;82;21464;-82
2021/03/16 04:30:37;;;;;;;69.20;32.27;;;;;;;-3.18;69.56;98181.25;2160583;82;21269;-81
2021/03/16 04:33:38;;;;;;;80.83;34.43;;;;;;;-3.23;69.85;98178.45;2161102;82;21260;-83
2021/03/16 04:36:39;;;;;;;118.87;38.10;;;;;;;-3.18;70.00;98178.70;2163892;81;21170;-82
2021/03/16 04:39:40;;;;;;;95.70;35.37;;;;;;;-3.15;70.27;98185.65;2178149;81;21444;-82
2021/03/16 04:42:41;;;;;;;91.83;33.37;;;;;;;-3.10;69.86;98186.37;2177974;81;21146;-81
2021/03/16 04:45:42;;;;;;;74.50;31.50;;;;;;;-3.11;70.20;98184.63;2178065;81;21276;-81
2021/03/16 04:48:43;;;;;;;158.63;38.57;;;;;;;-3.20;69.40;98182.84;2176804;81;21118;-81
2021/03/16 04:51:44;;;;;;;199.70;40.97;;;;;;;-3.23;69.65;98179.73;2177132;81;21122;-82
2021/03/16 04:54:45;;;;;;;280.43;46.13;;;;;;;-3.23;69.60;98187.39;2176346;81;21253;-82
2021/03/16 04:57:46;;;;;;;99.00;39.60;;;;;;;-3.23;69.69;98183.95;2176078;81;21280;-82
2021/03/16 05:00:48;;;;;;;147.53;46.37;;;;;;;-3.23;69.71;98186.11;2175145;81;21125;-82
2021/03/16 05:03:49;;;;;;;175.03;46.90;;;;;;;-3.20;69.76;98185.40;2175929;81;21273;-79
2021/03/16 05:06:50;;;;;;;114.83;45.60;;;;;;;-3.14;69.89;98179.75;2176020;82;21156;-82
2021/03/16 05:09:51;;;;;;;106.57;44.77;;;;;;;-3.11;69.80;98179.91;2175876;81;21240;-81
2021/03/16 05:12:52;;;;;;;169.30;57.40;;;;;;;-3.07;69.61;98181.84;2176379;81;21142;-82
2021/03/16 05:15:54;;;;;;;205.47;62.03;;;;;;;-3.05;70.28;98181.13;2177568;81;21296;-82
2021/03/16 05:18:55;;;;;;;165.00;59.97;;;;;;;-2.97;69.93;98176.42;2177396;81;21159;-82
2021/03/16 05:21:56;;;;;;;246.33;68.90;;;;;;;-2.95;69.41;98183.77;2176940;81;21167;-82
2021/03/16 05:24:57;;;;;;;180.30;65.60;;;;;;;-2.99;69.26;98186.95;2176496;81;21598;-80
2021/03/16 05:27:58;;;;;;;275.67;65.87;;;;;;;-3.01;69.46;98193.66;2176242;81;21255;-82
2021/03/16 05:30:59;;;;;;;162.60;62.23;;;;;;;-2.94;69.60;98191.91;2177143;81;21133;-82
2021/03/16 05:34:00;;;;;;;175.07;65.07;;;;;;;-2.89;69.22;98188.81;2178155;81;21130;-82
2021/03/16 05:37:01;;;;;;;158.33;63.93;;;;;;;-2.84;69.10;98192.88;2177452;81;21264;-82
2021/03/16 05:40:02;;;;;;;369.33;75.90;;;;;;;-2.76;69.22;98192.02;2177454;81;21420;-82
2021/03/16 05:43:03;;;;;;;263.20;72.63;;;;;;;-2.69;69.17;98194.97;2176623;81;21288;-82
2021/03/16 05:46:04;;;;;;;316.93;73.57;;;;;;;-2.51;69.28;98198.04;2175421;82;21244;-81
2021/03/16 05:49:05;;;;;;;179.57;69.97;;;;;;;-2.43;68.89;98201.87;2176069;81;21562;-82
2021/03/16 05:52:06;;;;;;;199.30;64.07;;;;;;;-2.31;69.03;98208.89;2176497;81;21113;-81
2021/03/16 05:55:07;;;;;;;816.67;115.67;;;;;;;-2.10;69.28;98211.27;2176065;81;21134;-82
2021/03/16 05:58:09;;;;;;;171.43;64.43;;;;;;;-1.85;69.42;98208.66;2175903;81;21253;-81
2021/03/16 06:01:10;;;;;;;161.47;63.93;;;;;;;-1.65;69.03;98214.39;2175794;81;21272;-82
2021/03/16 06:04:12;;;;;;;201.23;67.03;;;;;;;-1.52;68.89;98215.47;2176251;81;21244;-81
2021/03/16 06:07:13;;;;;;;312.40;154.40;;;;;;;-1.37;68.92;98223.89;2176191;81;21269;-80
2021/03/16 06:10:14;;;;;;;193.67;72.67;;;;;;;-1.13;69.46;98225.45;2175276;81;21551;-77
2021/03/16 06:13:16;;;;;;;184.17;73.77;;;;;;;-0.77;69.38;98219.92;2175425;81;21280;-80
2021/03/16 06:16:17;;;;;;;180.13;78.60;;;;;;;-0.50;69.13;98221.57;2176801;81;21296;-82
2021/03/16 06:19:18;;;;;;;551.70;98.13;;;;;;;-0.27;68.73;98220.43;2176604;81;21114;-82
2021/03/16 06:22:19;;;;;;;174.07;76.30;;;;;;;-0.03;68.79;98224.94;2177426;82;21281;-81
2021/03/16 06:25:21;;;;;;;164.23;74.77;;;;;;;0.28;68.72;98223.70;2176842;81;21245;-79
2021/03/16 06:28:22;;;;;;;166.43;73.27;;;;;;;0.50;68.54;98231.48;2176536;82;21649;-79
2021/03/16 06:31:23;;;;;;;552.13;94.17;;;;;;;0.68;68.34;98240.75;2177102;82;21922;-80
2021/03/16 06:34:24;;;;;;;165.47;65.07;;;;;;;0.81;68.35;98237.45;2177350;81;21256;-79
2021/03/16 06:37:25;;;;;;;135.57;59.03;;;;;;;0.93;68.75;98234.53;2173903;81;21274;-78
2021/03/16 06:40:26;;;;;;;126.10;55.37;;;;;;;1.11;68.07;98242.08;2175209;81;21157;-80
2021/03/16 06:43:29;;;;;;;140.27;63.67;;;;;;;1.15;67.64;98251.67;2176227;81;21276;-79
2021/03/16 06:46:30;;;;;;;155.17;66.53;;;;;;;1.11;67.77;98253.65;2176267;81;21105;-80
2021/03/16 06:49:31;;;;;;;156.40;67.77;;;;;;;1.18;68.04;98246.64;2176050;81;21244;-78
2021/03/16 06:52:34;;;;;;;156.73;75.90;;;;;;;1.29;68.11;98249.22;2176728;81;21363;-79
2021/03/16 06:55:35;;;;;;;169.43;74.27;;;;;;;1.33;67.89;98249.80;2176495;81;21268;-79
2021/03/16 06:58:36;;;;;;;200.87;87.87;;;;;;;1.43;67.85;98254.89;2175583;81;21249;-79
2021/03/16 07:01:37;;;;;;;219.57;88.07;;;;;;;1.64;67.62;98258.67;2175320;81;21264;-80
2021/03/16 07:04:39;;;;;;;226.93;104.20;;;;;;;1.93;67.62;98259.77;2175472;82;21261;-79
2021/03/16 07:07:40;;;;;;;244.80;115.43;;;;;;;2.18;67.11;98263.69;2175775;81;21284;-79
2021/03/16 07:10:41;;;;;;;235.67;112.13;;;;;;;2.38;67.18;98261.39;2175170;82;21098;-79
2021/03/16 07:13:42;;;;;;;254.43;122.63;;;;;;;2.59;67.01;98269.39;2176333;82;21284;-79
2021/03/16 07:16:43;;;;;;;220.13;108.23;;;;;;;2.83;66.75;98272.41;2176829;81;21592;-78
2021/03/16 07:19:45;;;;;;;212.03;104.87;;;;;;;3.09;66.49;98267.22;2175717;81;21501;-78
2021/03/16 07:22:46;;;;;;;213.37;104.30;;;;;;;3.30;66.00;98265.72;2175880;81;21118;-80
2021/03/16 07:25:47;;;;;;;213.03;107.40;;;;;;;3.47;65.73;98260.28;2175339;81;21141;-79
2021/03/16 07:28:48;;;;;;;241.20;117.10;;;;;;;3.55;65.32;98271.25;2174752;81;21217;-76
2021/03/16 07:31:50;;;;;;;235.50;111.63;;;;;;;3.59;65.25;98273.96;2174748;81;21131;-78
2021/03/16 07:34:51;;;;;;;226.83;107.87;;;;;;;3.65;65.41;98279.31;2175403;81;21129;-79
2021/03/16 07:37:52;;;;;;;200.30;104.40;;;;;;;4.04;65.40;98278.71;2175539;81;21159;-78
2021/03/16 07:40:53;;;;;;;181.03;94.07;;;;;;;4.04;65.40;98278.71;2158938;81;21316;-78
2021/03/16 07:43:54;;;;;;;185.07;93.73;;;;;;;4.18;64.65;98282.97;2158786;82;21272;-78
2021/03/16 07:46:58;;;;;;;180.63;91.80;;;;;;;4.33;64.36;98287.27;2158000;82;21281;-77
2021/03/16 07:49:58;;;;;;;162.73;86.40;;;;;;;4.50;63.97;98285.17;2157256;81;21284;-78
2021/03/16 07:52:59;;;;;;;155.40;86.13;;;;;;;4.58;63.67;98292.72;2156884;82;21134;-78
2021/03/16 07:56:00;;;;;;;182.50;96.50;;;;;;;4.63;63.29;98295.00;2157033;82;21308;-77
2021/03/16 07:59:01;;;;;;;160.00;89.83;;;;;;;4.78;63.45;98303.16;2157454;82;21288;-78
2021/03/16 08:02:02;;;;;;;143.53;80.20;;;;;;;4.88;63.35;98302.97;2157801;82;21309;-78
2021/03/16 08:05:04;;;;;;;154.17;85.53;;;;;;;4.93;63.61;98303.55;2157307;82;21892;-78
2021/03/16 08:08:05;;;;;;;144.20;82.17;;;;;;;5.05;63.57;98302.56;2156573;82;21123;-78
2021/03/16 08:11:07;;;;;;;150.13;81.73;;;;;;;5.13;63.41;98304.05;2157595;82;21264;-78
2021/03/16 08:14:08;;;;;;;133.27;75.10;;;;;;;5.31;63.63;98304.94;2157132;82;21237;-78
2021/03/16 08:17:09;;;;;;;121.47;69.47;;;;;;;5.40;62.86;98301.27;2157535;82;21312;-77
2021/03/16 08:20:11;;;;;;;128.83;68.43;;;;;;;5.54;62.73;98298.58;2157582;82;21330;-77
2021/03/16 08:23:12;;;;;;;104.33;62.13;;;;;;;5.74;62.24;98301.20;2159230;82;21123;-80
2021/03/16 08:26:13;;;;;;;114.20;67.30;;;;;;;5.90;61.41;98308.04;2158264;82;21257;-78
2021/03/16 08:29:15;;;;;;;111.07;65.90;;;;;;;5.83;61.55;98307.00;2156976;82;21103;-78
2021/03/16 08:32:16;;;;;;;116.33;68.43;;;;;;;5.69;62.00;98306.70;2157151;82;21680;-77
2021/03/16 08:35:17;;;;;;;119.33;66.53;;;;;;;5.69;62.00;98306.70;2156748;82;21839;-76
2021/03/16 08:38:19;;;;;;;116.43;66.90;;;;;;;5.69;61.96;98307.98;2156911;82;21311;-79
2021/03/16 08:41:20;;;;;;;106.73;63.17;;;;;;;5.91;61.70;98308.49;2156714;82;21142;-79
2021/03/16 08:44:21;;;;;;;119.90;69.27;;;;;;;6.02;60.73;98310.47;2158225;82;21591;-79
2021/03/16 08:47:22;;;;;;;116.70;69.73;;;;;;;5.88;60.81;98311.86;2158372;82;21134;-79
2021/03/16 08:50:24;;;;;;;685.73;415.83;;;;;;;5.81;61.27;98312.56;2157617;82;21277;-79
2021/03/16 08:53:26;;;;;;;170.17;81.10;;;;;;;5.86;69.84;98311.38;2158590;82;21702;-78
2021/03/16 08:56:27;;;;;;;116.83;65.97;;;;;;;8.61;71.26;98303.51;2158178;82;21280;-77
2021/03/16 08:59:28;;;;;;;117.63;69.70;;;;;;;9.20;56.21;98309.75;2157582;82;21639;-76
2021/03/16 09:02:29;;;;;;;118.13;66.70;;;;;;;7.68;56.67;98312.22;2157278;82;21249;-77
2021/03/16 09:05:30;;;;;;;127.43;69.57;;;;;;;6.81;58.02;98322.86;2156897;82;21265;-77
2021/03/16 09:08:32;;;;;;;121.27;72.37;;;;;;;6.33;59.21;98326.27;2157537;82;21530;-80
2021/03/16 09:11:33;;;;;;;116.07;67.70;;;;;;;6.07;59.63;98319.67;2158220;82;21270;-78
2021/03/16 09:14:34;;;;;;;116.00;68.83;;;;;;;5.99;60.09;98323.78;2157630;82;21158;-77
2021/03/16 09:17:35;;;;;;;113.53;70.53;;;;;;;6.02;60.46;98330.32;2156562;82;21297;-78
2021/03/16 09:20:37;;;;;;;122.37;70.80;;;;;;;6.02;60.46;98330.32;2156651;82;21269;-78
2021/03/16 09:23:38;;;;;;;114.73;69.23;;;;;;;5.96;60.87;98327.59;2156591;82;21257;-78
2021/03/16 09:26:39;;;;;;;105.30;65.23;;;;;;;6.01;60.77;98329.87;2156740;82;21115;-77
2021/03/16 09:29:40;;;;;;;112.57;61.20;;;;;;;6.21;60.86;98331.20;2155940;82;21147;-77
2021/03/16 09:32:42;;;;;;;108.83;63.87;;;;;;;6.45;61.15;98324.76;2156321;82;21099;-77
2021/03/16 09:35:43;;;;;;;95.37;56.73;;;;;;;6.45;61.15;98324.76;2156010;82;21143;-77
2021/03/16 09:38:44;;;;;;;90.13;55.07;;;;;;;6.98;60.42;98324.49;2158245;82;21277;-76
2021/03/16 09:41:45;;;;;;;87.87;54.47;;;;;;;7.29;58.94;98322.87;2174569;81;21130;-77
2021/03/16 09:44:46;;;;;;;78.13;48.10;;;;;;;7.29;58.58;98323.29;2174237;81;21614;-77
2021/03/16 09:47:47;;;;;;;87.27;52.63;;;;;;;7.43;57.46;98329.58;2174769;82;21252;-78
2021/03/16 09:50:50;;;;;;;79.17;49.03;;;;;;;7.57;57.28;98327.20;2174221;82;21279;-76
2021/03/16 09:53:51;;;;;;;80.27;47.63;;;;;;;7.88;56.70;98328.12;2175080;81;21106;-76
2021/03/16 09:56:52;;;;;;;74.83;46.13;;;;;;;8.08;56.54;98333.60;2174248;81;21134;-77
2021/03/16 09:59:53;;;;;;;71.23;44.90;;;;;;;8.40;56.19;98327.97;2176108;81;21264;-77
2021/03/16 10:02:54;;;;;;;63.07;39.73;;;;;;;8.60;55.09;98323.87;2175362;81;21169;-78
2021/03/16 10:05:55;;;;;;;69.47;43.13;;;;;;;8.92;54.48;98325.55;2174779;81;21255;-77
2021/03/16 10:08:56;;;;;;;65.73;39.40;;;;;;;9.04;53.61;98327.40;2174604;81;21304;-76
2021/03/16 10:11:57;;;;;;;64.43;39.30;;;;;;;9.33;53.57;98325.05;2174076;81;22145;-77
2021/03/16 10:14:58;;;;;;;62.93;37.00;;;;;;;9.69;53.02;98318.86;2174691;81;21122;-76
2021/03/16 10:17:59;;;;;;;62.30;39.67;;;;;;;9.97;52.25;98323.81;2175053;82;21658;-77
2021/03/16 10:21:01;;;;;;;63.97;38.87;;;;;;;9.97;51.35;98325.55;2176436;81;21146;-78
2021/03/16 10:24:04;;;;;;;64.57;37.67;;;;;;;10.00;51.39;98325.56;2174847;81;21118;-77
2021/03/16 10:27:04;;;;;;;59.53;37.30;;;;;;;10.18;51.18;98322.63;2174475;82;21546;-77
2021/03/16 10:30:07;;;;;;;61.95;37.80;;;;;;;10.43;50.67;98320.19;2174499;81;21933;-78
2021/03/16 10:33:10;;;;;;;69.15;44.18;;;;;;;10.57;50.24;98319.81;2173853;81;21944;-78
2021/03/16 10:36:12;;;;;;;64.58;38.02;;;;;;;10.41;48.98;98322.80;2173800;81;21948;-77
2021/03/16 10:39:13;;;;;;;56.88;36.25;;;;;;;10.27;49.89;98324.87;2174217;81;21164;-79
2021/03/16 10:42:14;;;;;;;54.53;37.50;;;;;;;10.08;47.79;98326.48;2175068;81;21248;-79
2021/03/16 10:45:15;;;;;;;59.10;38.07;;;;;;;9.84;48.28;98318.09;2175052;81;21094;-76
2021/03/16 10:48:17;;;;;;;57.83;38.10;;;;;;;9.69;49.03;98318.86;2174650;81;21260;-78
2021/03/16 10:51:18;;;;;;;64.80;35.40;;;;;;;9.63;49.63;98320.12;2174207;81;21094;-78
2021/03/16 10:54:19;;;;;;;53.90;36.07;;;;;;;9.56;48.60;98324.84;2173986;81;21579;-77
2021/03/16 10:57:20;;;;;;;57.97;35.37;;;;;;;9.60;49.54;98315.31;2174734;81;21181;-78
2021/03/16 11:00:21;;;;;;;54.60;36.27;;;;;;;9.64;48.94;98317.95;2174427;81;21280;-78
2021/03/16 11:03:22;;;;;;;55.83;34.67;;;;;;;9.69;48.98;98314.95;2174859;81;21555;-79
2021/03/16 11:06:23;;;;;;;51.18;33.88;;;;;;;9.80;48.67;98319.80;2174718;81;21102;-79
2021/03/16 11:09:24;;;;;;;45.13;31.30;;;;;;;9.97;47.98;98317.73;2175798;81;21292;-80
2021/03/16 11:12:25;;;;;;;51.97;35.83;;;;;;;10.21;48.47;98316.59;2175884;81;21252;-77
2021/03/16 11:15:26;;;;;;;48.10;27.37;;;;;;;10.54;48.00;98313.27;2175189;81;21137;-78
2021/03/16 11:18:27;;;;;;;45.95;32.25;;;;;;;10.69;46.82;98317.23;2173617;81;21593;-76
2021/03/16 11:21:28;;;;;;;56.37;38.33;;;;;;;10.93;46.68;98312.95;2174310;81;21268;-78
2021/03/16 11:24:29;;;;;;;66.15;46.00;;;;;;;10.84;46.72;98311.19;2174346;81;22003;-78
2021/03/16 11:27:30;;;;;;;55.90;37.78;;;;;;;10.66;47.37;98314.63;2174339;81;21094;-77
2021/03/16 11:30:32;;;;;;;71.72;39.92;;;;;;;10.53;47.85;98312.84;2174908;81;21130;-78
2021/03/16 11:33:33;;;;;;;57.55;40.58;;;;;;;10.48;48.30;98308.03;2175068;81;21169;-78
2021/03/16 11:36:34;;;;;;;60.40;37.50;;;;;;;10.30;48.57;98311.84;2174714;81;21303;-78
2021/03/16 11:39:35;;;;;;;56.20;38.67;;;;;;;9.98;48.36;98310.34;2174868;81;21599;-78
2021/03/16 11:42:36;;;;;;;53.47;36.97;;;;;;;9.60;49.23;98315.31;2174915;81;21280;-78
2021/03/16 11:45:39;;;;;;;51.30;35.77;;;;;;;9.24;49.90;98318.03;2174645;82;21130;-77
2021/03/16 11:48:40;;;;;;;57.83;39.07;;;;;;;8.85;51.16;98323.74;2174052;81;21130;-77
2021/03/16 11:51:41;;;;;;;51.90;36.07;;;;;;;8.37;52.80;98321.00;2175084;81;21264;-78
2021/03/16 11:54:43;;;;;;;54.30;36.20;;;;;;;8.06;54.47;98328.81;2174656;81;21260;-77
2021/03/16 11:57:44;;;;;;;54.97;37.27;;;;;;;7.85;55.75;98328.52;2173931;82;21288;-78
2021/03/16 12:00:45;;;;;;;46.50;33.90;;;;;;;7.71;56.53;98332.59;2174336;81;21264;-78
2021/03/16 12:03:46;;;;;;;52.00;34.27;;;;;;;7.58;57.30;98331.55;2174755;81;21098;-76
2021/03/16 12:06:47;;;;;;;44.80;31.50;;;;;;;7.57;57.17;98326.77;2174704;81;21292;-78
2021/03/16 12:09:48;;;;;;;46.03;32.77;;;;;;;7.66;57.08;98332.53;2174212;81;21158;-78
2021/03/16 12:12:49;;;;;;;50.30;35.33;;;;;;;7.75;57.34;98330.49;2174549;81;21114;-78
2021/03/16 12:15:50;;;;;;;48.83;31.80;;;;;;;7.85;57.28;98322.02;2174820;81;21275;-77
2021/03/16 12:18:51;;;;;;;53.37;33.97;;;;;;;7.93;57.17;98319.97;2174234;81;21240;-77
2021/03/16 12:21:54;;;;;;;70.40;37.17;;;;;;;7.99;56.71;98310.09;2174684;81;21181;-77
2021/03/16 12:24:55;;;;;;;72.47;38.63;;;;;;;8.07;56.61;98308.46;2174284;81;21268;-77
2021/03/16 12:27:56;;;;;;;51.87;32.63;;;;;;;8.18;56.54;98308.59;2173709;81;21277;-77
2021/03/16 12:30:58;;;;;;;48.13;31.33;;;;;;;8.34;56.20;98302.77;2173868;81;21130;-77
2021/03/16 12:33:59;;;;;;;43.27;30.07;;;;;;;8.50;55.90;98300.78;2175087;81;21318;-77
2021/03/16 12:37:00;;;;;;;40.27;28.10;;;;;;;8.63;55.62;98300.06;2174486;81;21288;-77
2021/03/16 12:40:03;;;;;;;42.43;28.77;;;;;;;8.76;54.96;98299.80;2174581;81;21281;-77
2021/03/16 12:43:04;;;;;;;51.93;33.50;;;;;;;8.88;54.99;98297.75;2174551;81;21098;-78
2021/03/16 12:49:42;;;;;;;44.27;30.83;;;;;;;9.35;53.56;98300.77;2174129;82;21018;-77
2021/03/16 12:52:43;;;;;;;42.50;30.10;;;;;;;9.54;53.36;98295.30;2173304;81;21252;-77
2021/03/16 12:55:44;;;;;;;35.73;26.90;;;;;;;9.77;52.81;98291.54;2173287;81;21405;-78
2021/03/16 12:58:45;;;;;;;43.20;29.60;;;;;;;10.09;51.02;98295.20;2174016;81;21551;-78
2021/03/16 13:01:46;;;;;;;34.00;27.00;;;;;;;10.18;51.13;98296.98;2173861;81;21145;-78
2021/03/16 13:04:47;;;;;;;37.90;28.63;;;;;;;10.19;49.93;98301.33;2172354;81;21118;-79
2021/03/16 13:07:49;;;;;;;43.20;30.30;;;;;;;9.94;49.16;98304.67;2171969;81;21251;-78
2021/03/16 13:10:50;;;;;;;40.83;29.30;;;;;;;9.68;49.51;98302.78;2171741;81;21162;-78
2021/03/16 13:13:51;;;;;;;38.00;27.90;;;;;;;9.43;49.78;98297.80;2171724;81;21267;-79
2021/03/16 13:16:52;;;;;;;38.90;29.47;;;;;;;9.57;50.60;98291.41;2173026;81;21161;-78
2021/03/16 13:19:53;;;;;;;33.20;24.83;;;;;;;9.70;50.04;98298.88;2173359;81;21252;-78
2021/03/16 13:22:55;;;;;;;29.17;23.17;;;;;;;9.55;48.59;98304.43;2174045;82;21231;-78
2021/03/16 13:25:56;;;;;;;28.47;21.53;;;;;;;9.55;49.66;98309.64;2173594;81;21449;-77
2021/03/16 13:28:57;;;;;;;34.47;22.87;;;;;;;9.67;49.80;98314.06;2174202;81;21284;-76
2021/03/16 13:31:58;;;;;;;38.70;24.53;;;;;;;9.68;50.65;98316.24;2174014;81;21122;-77
2021/03/16 13:34:59;;;;;;;28.60;21.87;;;;;;;9.91;50.97;98321.17;2175702;82;21279;-78
2021/03/16 13:38:01;;;;;;;25.33;20.33;;;;;;;9.99;50.09;98327.30;2174546;81;21726;-77
2021/03/16 13:41:02;;;;;;;24.33;18.00;;;;;;;9.77;50.25;98317.17;2173943;81;21491;-77
2021/03/16 13:44:03;;;;;;;24.13;16.97;;;;;;;9.67;50.82;98321.88;2174217;81;21228;-77
2021/03/16 13:47:04;;;;;;;18.87;15.33;;;;;;;9.62;50.41;98333.13;2174780;81;21240;-76
2021/03/16 13:50:05;;;;;;;18.23;14.87;;;;;;;9.59;50.71;98330.08;2174586;81;21739;-77
2021/03/16 13:53:06;;;;;;;16.57;14.50;;;;;;;9.58;50.50;98333.55;2175067;81;21255;-76
2021/03/16 13:56:07;;;;;;;27.10;18.93;;;;;;;9.48;51.39;98336.47;2175740;81;21173;-78
2021/03/16 13:59:08;;;;;;;15.80;13.83;;;;;;;9.15;53.73;98350.51;2175106;81;21126;-77